Time;durP1;ratioP1;P1;durP2;ratioP2;P2;SDS_P1;SDS_P2;PMS_P1;PMS_P2;Temp;Humidity;BMP_temperature;BMP_pressure;BME280_temperature;BME280_humidity;BME280_pressure;Samples;Min_cycle;Max_cycle;Signal;HPM_P1;HPM_P2
2020/12/31 00:02:12;;;;;;;0.30;0.30;;;4.40;99.90;;;;;;4842702;29;20220;-88
2020/12/31 00:04:38;;;;;;;0.30;0.30;;;4.40;99.90;;;;;;4840158;29;20289;-86
2020/12/31 00:07:04;;;;;;;0.30;0.30;;;4.40;99.90;;;;;;4856635;29;20283;-87
2020/12/31 00:09:30;;;;;;;0.40;0.40;;;4.50;99.90;;;;;;4839377;29;20940;-87
2020/12/31 00:11:56;;;;;;;0.20;0.20;;;4.40;99.90;;;;;;4827387;29;20220;-87
2020/12/31 00:14:22;;;;;;;0.30;0.30;;;4.40;99.90;;;;;;4842150;29;20296;-86
2020/12/31 00:16:48;;;;;;;0.30;0.30;;;4.40;99.90;;;;;;4819633;29;20317;-86
2020/12/31 00:19:13;;;;;;;0.37;0.37;;;4.40;99.90;;;;;;4859071;29;20280;-86
2020/12/31 00:21:39;;;;;;;0.53;0.53;;;4.40;99.90;;;;;;4829796;29;20226;-87
2020/12/31 00:24:05;;;;;;;0.17;0.17;;;4.40;99.90;;;;;;4857352;29;20324;-88
2020/12/31 00:26:31;;;;;;;0.90;0.90;;;4.40;99.90;;;;;;4843098;29;20243;-86
2020/12/31 00:28:57;;;;;;;0.30;0.30;;;4.40;99.90;;;;;;4824482;29;20231;-87
2020/12/31 00:31:23;;;;;;;0.77;0.57;;;4.40;99.90;;;;;;4826605;29;20709;-87
2020/12/31 00:33:48;;;;;;;0.20;0.20;;;4.40;99.90;;;;;;4840193;29;20199;-86
2020/12/31 00:36:14;;;;;;;0.50;0.50;;;4.40;99.90;;;;;;4856844;29;20220;-86
2020/12/31 00:38:40;;;;;;;0.20;0.20;;;4.30;99.90;;;;;;4841820;29;20296;-88
2020/12/31 00:41:06;;;;;;;0.27;0.27;;;4.30;99.90;;;;;;4842223;29;20263;-86
2020/12/31 00:43:32;;;;;;;0.70;0.70;;;4.30;99.90;;;;;;4857920;29;20266;-86
2020/12/31 00:45:57;;;;;;;0.30;0.30;;;4.30;99.90;;;;;;4824662;29;20295;-87
2020/12/31 00:48:23;;;;;;;0.50;0.50;;;4.30;99.90;;;;;;4842301;29;20228;-87
2020/12/31 00:50:49;;;;;;;0.50;0.50;;;4.30;99.90;;;;;;4842264;29;20255;-87
2020/12/31 00:53:15;;;;;;;1.57;1.47;;;4.30;99.90;;;;;;4841246;29;20248;-86
2020/12/31 00:55:40;;;;;;;0.40;0.40;;;4.30;99.90;;;;;;4825655;29;20255;-86
2020/12/31 00:58:06;;;;;;;0.67;0.67;;;4.30;99.90;;;;;;4825538;29;20216;-87
2020/12/31 01:00:33;;;;;;;0.40;0.37;;;4.30;99.90;;;;;;4859830;29;21132;-87
2020/12/31 01:03:00;;;;;;;0.30;0.30;;;4.20;99.90;;;;;;4840885;29;20220;-87
2020/12/31 01:05:25;;;;;;;0.80;0.80;;;4.10;99.90;;;;;;4825762;29;20299;-86
2020/12/31 01:07:52;;;;;;;0.50;0.50;;;4.10;99.90;;;;;;4825035;29;20338;-87
2020/12/31 01:10:18;;;;;;;0.73;0.73;;;4.00;99.90;;;;;;4825838;29;21129;-86
2020/12/31 01:12:44;;;;;;;0.30;0.30;;;4.00;99.90;;;;;;4827991;29;20192;-87
2020/12/31 01:15:10;;;;;;;0.50;0.50;;;3.90;99.90;;;;;;4825188;29;20590;-86
2020/12/31 01:17:36;;;;;;;0.60;0.60;;;4.00;99.90;;;;;;4839985;29;20226;-87
2020/12/31 01:20:03;;;;;;;0.40;0.40;;;4.00;99.90;;;;;;4840493;29;20315;-86
2020/12/31 01:22:29;;;;;;;0.43;0.43;;;3.90;99.90;;;;;;4839266;29;20220;-87
2020/12/31 01:24:55;;;;;;;0.87;0.87;;;3.90;99.90;;;;;;4824912;29;20247;-86
2020/12/31 01:27:20;;;;;;;0.40;0.40;;;4.00;99.90;;;;;;4826111;29;20197;-87
2020/12/31 01:29:46;;;;;;;0.40;0.40;;;4.00;99.90;;;;;;4840744;29;20224;-87
2020/12/31 01:32:12;;;;;;;0.30;0.30;;;4.00;99.90;;;;;;4839092;29;20224;-86
2020/12/31 01:34:38;;;;;;;1.70;0.73;;;4.00;99.90;;;;;;4842912;29;20219;-86
2020/12/31 01:37:04;;;;;;;0.70;0.70;;;4.00;99.90;;;;;;4840335;29;21071;-88
2020/12/31 01:39:30;;;;;;;2.00;0.80;;;4.00;99.90;;;;;;4843088;29;20211;-87
2020/12/31 01:42:05;;;;;;;0.90;0.90;;;4.00;99.90;;;;;;4826696;29;20244;-88
2020/12/31 01:44:31;;;;;;;0.60;0.60;;;3.90;99.90;;;;;;4853797;29;20246;-87
2020/12/31 01:47:00;;;;;;;1.70;1.60;;;3.90;99.90;;;;;;4842304;29;20235;-87
2020/12/31 01:49:32;;;;;;;2.13;1.63;;;3.90;99.90;;;;;;4855545;29;20242;-86
2020/12/31 01:51:58;;;;;;;1.10;1.00;;;3.90;99.90;;;;;;4841157;29;20183;-87
2020/12/31 01:54:25;;;;;;;4.47;1.57;;;3.90;99.90;;;;;;4826727;29;21048;-88
2020/12/31 01:56:54;;;;;;;1.93;1.20;;;3.90;99.90;;;;;;4824472;29;20273;-87
2020/12/31 01:59:20;;;;;;;2.67;2.00;;;3.90;99.90;;;;;;4855578;29;20240;-86
2020/12/31 02:01:47;;;;;;;4.10;2.30;;;3.90;99.90;;;;;;4809945;29;20753;-86
2020/12/31 02:04:13;;;;;;;2.83;1.23;;;3.90;99.90;;;;;;4827346;29;20220;-88
2020/12/31 02:06:39;;;;;;;5.10;3.03;;;3.90;99.90;;;;;;4841890;29;20940;-86
2020/12/31 02:09:05;;;;;;;2.47;2.27;;;4.00;99.90;;;;;;4823855;29;20766;-87
2020/12/31 02:11:31;;;;;;;2.03;1.93;;;4.00;99.90;;;;;;4837521;29;20232;-86
2020/12/31 02:13:57;;;;;;;2.70;2.50;;;4.00;99.90;;;;;;4841980;29;20252;-87
2020/12/31 02:16:27;;;;;;;5.43;3.20;;;4.00;99.90;;;;;;4841682;29;20335;-87
2020/12/31 02:18:58;;;;;;;3.83;2.13;;;4.10;99.90;;;;;;4838990;29;20661;-87
2020/12/31 02:21:28;;;;;;;6.70;4.67;;;4.10;99.90;;;;;;4841331;29;20199;-87
2020/12/31 02:23:55;;;;;;;3.07;2.17;;;4.10;99.90;;;;;;4855219;29;20224;-86
2020/12/31 02:26:24;;;;;;;2.67;2.33;;;4.10;99.90;;;;;;4855434;29;20244;-87
2020/12/31 02:28:50;;;;;;;3.50;3.20;;;4.10;99.90;;;;;;4823191;29;20226;-87
2020/12/31 02:31:16;;;;;;;4.83;3.20;;;4.20;99.90;;;;;;4857425;29;20229;-87
2020/12/31 02:33:46;;;;;;;4.17;3.20;;;4.20;99.90;;;;;;4840363;29;20264;-88
2020/12/31 02:36:13;;;;;;;5.30;3.50;;;4.10;99.90;;;;;;4824557;29;20236;-86
2020/12/31 02:38:40;;;;;;;4.03;3.20;;;4.10;99.90;;;;;;4834655;29;20578;-89
2020/12/31 02:41:06;;;;;;;3.77;3.13;;;4.10;99.90;;;;;;4835307;29;20231;-87
2020/12/31 02:43:33;;;;;;;3.80;2.60;;;4.10;99.90;;;;;;4835107;29;20243;-89
2020/12/31 02:45:58;;;;;;;0.50;0.50;;;4.10;99.90;;;;;;4835599;29;20217;-89
2020/12/31 02:48:24;;;;;;;1.20;1.20;;;4.00;99.90;;;;;;4835193;29;20195;-87
2020/12/31 02:50:50;;;;;;;0.67;0.67;;;3.90;99.90;;;;;;4834784;29;20225;-87
2020/12/31 02:53:16;;;;;;;1.00;1.00;;;3.80;99.90;;;;;;4819569;29;20237;-88
2020/12/31 02:55:42;;;;;;;0.70;0.50;;;3.80;99.90;;;;;;4823378;29;21189;-88
2020/12/31 02:58:08;;;;;;;0.57;0.57;;;3.70;99.90;;;;;;4839012;29;20228;-89
2020/12/31 03:00:33;;;;;;;0.93;0.83;;;3.70;99.90;;;;;;4809542;29;20223;-86
2020/12/31 03:02:59;;;;;;;0.67;0.67;;;3.70;99.90;;;;;;4823411;29;20244;-86
2020/12/31 03:05:25;;;;;;;0.50;0.50;;;3.70;99.90;;;;;;4838278;29;20243;-88
2020/12/31 03:07:50;;;;;;;0.30;0.30;;;3.70;99.90;;;;;;4838462;29;20275;-86
2020/12/31 03:10:16;;;;;;;0.53;0.53;;;3.60;99.90;;;;;;4856445;29;21382;-86
2020/12/31 03:12:42;;;;;;;0.50;0.50;;;3.60;99.90;;;;;;4828127;29;21411;-86
2020/12/31 03:15:12;;;;;;;0.30;0.30;;;3.60;99.90;;;;;;4825648;29;20233;-87
2020/12/31 03:17:38;;;;;;;0.53;0.53;;;3.60;99.90;;;;;;4842751;29;20259;-87
2020/12/31 03:20:05;;;;;;;0.50;0.50;;;3.60;99.90;;;;;;4860785;29;20289;-86
2020/12/31 03:22:31;;;;;;;0.87;0.80;;;3.70;99.90;;;;;;4843860;29;20636;-87
2020/12/31 03:24:57;;;;;;;3.13;0.80;;;3.70;99.90;;;;;;4825880;29;20241;-87
2020/12/31 03:27:23;;;;;;;1.67;1.20;;;3.70;99.90;;;;;;4860565;29;20561;-85
2020/12/31 03:29:50;;;;;;;0.30;0.30;;;3.60;99.90;;;;;;4842622;29;20381;-86
2020/12/31 03:32:16;;;;;;;0.63;0.33;;;3.60;99.90;;;;;;4852671;29;20228;-87
2020/12/31 03:34:42;;;;;;;0.20;0.20;;;3.60;99.90;;;;;;4858456;29;20224;-85
2020/12/31 03:37:08;;;;;;;0.50;0.50;;;3.60;99.90;;;;;;4841286;29;20248;-86
2020/12/31 03:39:33;;;;;;;0.63;0.63;;;3.60;99.90;;;;;;4845196;29;20781;-86
2020/12/31 03:41:59;;;;;;;0.57;0.57;;;3.50;99.90;;;;;;4841204;29;20254;-86
2020/12/31 03:44:25;;;;;;;0.37;0.37;;;3.50;99.90;;;;;;4828251;29;20243;-86
2020/12/31 03:46:51;;;;;;;0.47;0.47;;;3.50;99.90;;;;;;4828566;29;20699;-86
2020/12/31 03:49:17;;;;;;;0.30;0.30;;;3.60;99.90;;;;;;4826422;29;20235;-87
2020/12/31 03:51:43;;;;;;;0.93;0.47;;;3.60;99.90;;;;;;4846033;29;21269;-86
2020/12/31 03:54:08;;;;;;;0.33;0.33;;;3.60;99.90;;;;;;4842468;29;20244;-86
2020/12/31 03:56:35;;;;;;;2.27;0.63;;;3.60;99.90;;;;;;4840405;29;20256;-87
2020/12/31 03:59:01;;;;;;;0.30;0.30;;;3.60;99.90;;;;;;4810940;29;20239;-86
2020/12/31 04:01:28;;;;;;;0.40;0.40;;;3.60;99.90;;;;;;4858816;29;20581;-86
2020/12/31 04:03:54;;;;;;;0.50;0.50;;;3.60;99.90;;;;;;4841764;29;20209;-87
2020/12/31 04:06:20;;;;;;;0.40;0.40;;;3.50;99.90;;;;;;4858994;29;20666;-86
2020/12/31 04:08:45;;;;;;;0.80;0.77;;;3.50;99.90;;;;;;4858464;29;21037;-87
2020/12/31 04:11:11;;;;;;;0.30;0.30;;;3.50;99.90;;;;;;4824637;29;20678;-85
2020/12/31 04:13:37;;;;;;;0.60;0.60;;;3.50;99.90;;;;;;4839735;29;20234;-87
2020/12/31 04:16:02;;;;;;;0.70;0.70;;;3.50;99.90;;;;;;4840798;29;21157;-87
2020/12/31 04:18:28;;;;;;;0.50;0.50;;;3.50;99.90;;;;;;4840896;29;21374;-87
2020/12/31 04:20:54;;;;;;;0.50;0.50;;;3.50;99.90;;;;;;4836221;29;20228;-88
2020/12/31 04:23:19;;;;;;;0.20;0.20;;;3.40;99.90;;;;;;4850850;29;20251;-85
2020/12/31 04:25:47;;;;;;;0.20;0.20;;;3.50;99.90;;;;;;4822173;29;20588;-87
2020/12/31 04:28:13;;;;;;;0.40;0.40;;;3.50;99.90;;;;;;4837641;29;20716;-88
2020/12/31 04:30:39;;;;;;;0.27;0.27;;;3.50;99.90;;;;;;4838841;29;20655;-87
2020/12/31 04:33:04;;;;;;;0.37;0.37;;;3.50;99.90;;;;;;4821939;29;20223;-87
2020/12/31 04:35:30;;;;;;;0.53;0.53;;;3.50;99.90;;;;;;4855118;29;20229;-86
2020/12/31 04:37:56;;;;;;;0.83;0.80;;;3.50;99.90;;;;;;4821687;29;21368;-86
2020/12/31 04:40:22;;;;;;;0.70;0.70;;;3.50;99.90;;;;;;4836680;29;20243;-87
2020/12/31 04:42:51;;;;;;;0.83;0.83;;;3.50;99.90;;;;;;4841001;29;20204;-87
2020/12/31 04:45:21;;;;;;;0.53;0.53;;;3.40;99.90;;;;;;4838906;29;20299;-88
2020/12/31 04:48:26;;;;;;;0.33;0.33;;;3.40;99.90;;;;;;4840367;29;20219;-86
2020/12/31 04:51:01;;;;;;;0.80;0.80;;;3.40;99.90;;;;;;4856294;29;21080;-87
2020/12/31 04:53:27;;;;;;;0.43;0.43;;;3.40;99.90;;;;;;4842315;29;20275;-87
2020/12/31 04:55:53;;;;;;;0.50;0.50;;;3.40;99.90;;;;;;4826609;29;20224;-87
2020/12/31 04:58:19;;;;;;;0.60;0.43;;;3.40;99.90;;;;;;4826089;29;20982;-87
2020/12/31 05:00:46;;;;;;;0.73;0.73;;;3.50;99.90;;;;;;4844798;29;20188;-87
2020/12/31 05:03:12;;;;;;;0.60;0.60;;;3.40;99.90;;;;;;4841938;29;20228;-85
2020/12/31 05:05:39;;;;;;;0.97;0.87;;;3.40;99.90;;;;;;4840619;29;20288;-87
2020/12/31 05:08:06;;;;;;;0.57;0.57;;;3.40;99.90;;;;;;4825420;29;20290;-87
2020/12/31 05:10:32;;;;;;;0.40;0.40;;;3.40;99.90;;;;;;4853348;29;20227;-87
2020/12/31 05:13:03;;;;;;;0.40;0.40;;;3.50;99.90;;;;;;4857600;29;20187;-86
2020/12/31 05:15:40;;;;;;;1.40;0.50;;;3.40;99.90;;;;;;4844047;29;20181;-87
2020/12/31 05:18:23;;;;;;;1.23;0.77;;;3.40;99.90;;;;;;4841218;29;20224;-87
2020/12/31 05:20:53;;;;;;;0.47;0.47;;;3.40;99.90;;;;;;4840877;29;20248;-87
2020/12/31 05:23:21;;;;;;;0.60;0.60;;;3.40;99.90;;;;;;4854250;29;20311;-87
2020/12/31 05:25:48;;;;;;;0.60;0.60;;;3.30;99.90;;;;;;4826229;29;20242;-88
2020/12/31 05:28:36;;;;;;;0.90;0.90;;;3.30;99.90;;;;;;4856370;29;21024;-87
2020/12/31 05:31:07;;;;;;;0.13;0.13;;;3.20;99.90;;;;;;4841572;29;20192;-87
2020/12/31 05:33:41;;;;;;;0.80;0.80;;;3.20;99.90;;;;;;4843274;29;20201;-87
2020/12/31 05:36:16;;;;;;;0.30;0.30;;;3.20;99.90;;;;;;4857965;29;20223;-86
2020/12/31 05:38:57;;;;;;;1.87;0.50;;;3.10;99.90;;;;;;4841471;29;20748;-89
2020/12/31 05:41:24;;;;;;;1.13;1.13;;;3.10;99.90;;;;;;4840251;29;20678;-87
2020/12/31 05:43:54;;;;;;;1.23;0.60;;;3.20;99.90;;;;;;4840989;29;20238;-87
2020/12/31 05:46:21;;;;;;;1.17;1.03;;;3.10;99.90;;;;;;4841042;29;20225;-89
2020/12/31 05:48:56;;;;;;;1.20;1.17;;;3.20;99.90;;;;;;4829939;29;20671;-87
2020/12/31 05:51:32;;;;;;;0.70;0.53;;;3.20;99.90;;;;;;4856166;29;20626;-87
2020/12/31 05:54:10;;;;;;;0.30;0.30;;;3.20;99.90;;;;;;4841595;29;20231;-86
2020/12/31 05:56:37;;;;;;;0.67;0.67;;;3.20;99.90;;;;;;4854471;29;20262;-86
2020/12/31 05:59:21;;;;;;;0.97;0.70;;;3.10;99.90;;;;;;4856038;29;20282;-87
2020/12/31 06:02:00;;;;;;;2.03;1.50;;;3.20;99.90;;;;;;4842069;29;20274;-87
2020/12/31 06:04:29;;;;;;;1.30;1.30;;;3.30;99.90;;;;;;4856409;29;20223;-87
2020/12/31 06:07:04;;;;;;;1.90;1.10;;;3.20;99.90;;;;;;4847003;29;20561;-86
2020/12/31 06:09:35;;;;;;;1.67;1.57;;;3.20;99.90;;;;;;4855156;29;20192;-87
2020/12/31 06:12:01;;;;;;;1.00;1.00;;;3.20;99.90;;;;;;4826506;29;20234;-87
2020/12/31 06:14:30;;;;;;;1.43;1.33;;;3.20;99.90;;;;;;4839489;29;20244;-88
2020/12/31 06:16:59;;;;;;;2.17;1.97;;;3.10;99.90;;;;;;4855463;29;20326;-86
2020/12/31 06:19:30;;;;;;;1.07;1.07;;;3.10;99.90;;;;;;4856379;29;20236;-86
2020/12/31 06:22:10;;;;;;;1.43;1.33;;;3.00;99.90;;;;;;4859030;29;20681;-88
2020/12/31 06:24:45;;;;;;;1.20;1.10;;;2.90;99.90;;;;;;4857533;29;20201;-86
2020/12/31 06:27:15;;;;;;;1.07;1.07;;;2.90;99.90;;;;;;4840596;29;20819;-87
2020/12/31 06:29:45;;;;;;;0.90;0.90;;;2.80;99.90;;;;;;4826363;29;20223;-86
2020/12/31 06:32:27;;;;;;;0.90;0.90;;;2.80;99.90;;;;;;4842354;29;20232;-87
2020/12/31 06:35:10;;;;;;;1.63;1.20;;;2.80;99.90;;;;;;4843995;29;20251;-87
2020/12/31 06:37:37;;;;;;;2.07;1.97;;;2.80;99.90;;;;;;4860581;29;20257;-88
2020/12/31 06:40:24;;;;;;;1.43;0.93;;;2.80;99.90;;;;;;4842903;29;21201;-86
2020/12/31 06:43:04;;;;;;;1.00;0.87;;;2.80;99.90;;;;;;4844086;29;20188;-87
2020/12/31 06:45:41;;;;;;;1.00;0.83;;;2.80;99.90;;;;;;4859054;29;20193;-86
2020/12/31 06:48:25;;;;;;;1.17;1.07;;;2.80;99.90;;;;;;4843861;29;20220;-87
2020/12/31 06:50:54;;;;;;;1.47;1.20;;;2.80;99.90;;;;;;4861481;29;20231;-86
2020/12/31 06:53:33;;;;;;;2.27;1.97;;;2.70;99.90;;;;;;4842838;29;20242;-87
2020/12/31 06:56:02;;;;;;;2.37;1.53;;;2.70;99.90;;;;;;4858611;29;20224;-86
2020/12/31 06:58:29;;;;;;;1.37;1.33;;;2.70;99.90;;;;;;4859025;29;20243;-87
2020/12/31 07:00:55;;;;;;;2.10;1.63;;;2.70;99.90;;;;;;4843976;29;20195;-87
2020/12/31 07:03:39;;;;;;;1.70;1.60;;;2.60;99.90;;;;;;4826021;29;20227;-85
2020/12/31 07:06:20;;;;;;;1.13;1.03;;;2.70;99.90;;;;;;4858433;29;20251;-86
2020/12/31 07:09:01;;;;;;;2.07;1.97;;;2.70;99.90;;;;;;4843337;29;20231;-86
2020/12/31 07:11:32;;;;;;;2.30;2.10;;;2.70;99.90;;;;;;4840442;29;20220;-86
2020/12/31 07:13:59;;;;;;;0.83;0.83;;;2.80;99.90;;;;;;4857957;29;20263;-85
2020/12/31 07:16:45;;;;;;;2.63;2.43;;;2.80;99.90;;;;;;4828610;29;20721;-86
2020/12/31 07:19:11;;;;;;;2.13;1.47;;;2.90;99.90;;;;;;4844784;29;20247;-86
2020/12/31 07:21:37;;;;;;;2.67;2.47;;;3.00;99.90;;;;;;4842668;29;20655;-86
2020/12/31 07:24:23;;;;;;;3.20;2.93;;;3.00;99.90;;;;;;4840681;29;20227;-86
2020/12/31 07:26:50;;;;;;;2.37;2.27;;;3.00;99.90;;;;;;4858148;29;20351;-86
2020/12/31 07:29:24;;;;;;;3.33;3.00;;;3.10;99.90;;;;;;4841152;29;20268;-86
2020/12/31 07:31:51;;;;;;;2.87;1.90;;;3.10;99.90;;;;;;4859999;29;20232;-86
2020/12/31 07:34:27;;;;;;;6.93;3.67;;;3.10;99.90;;;;;;4844158;29;20224;-86
2020/12/31 07:36:57;;;;;;;2.40;2.20;;;3.10;99.90;;;;;;4858844;29;20179;-86
2020/12/31 07:39:23;;;;;;;1.97;1.77;;;3.10;99.90;;;;;;4844147;29;20225;-86
2020/12/31 07:41:49;;;;;;;4.23;2.67;;;3.00;99.90;;;;;;4856567;29;20674;-85
2020/12/31 07:44:15;;;;;;;1.87;1.73;;;3.00;99.90;;;;;;4841334;29;20315;-87
2020/12/31 07:46:43;;;;;;;5.87;2.37;;;2.90;99.90;;;;;;4844527;29;21353;-86
2020/12/31 07:49:12;;;;;;;4.13;2.03;;;2.90;99.90;;;;;;4842914;29;20619;-86
2020/12/31 07:51:45;;;;;;;2.07;1.70;;;2.80;99.90;;;;;;4845064;29;20309;-88
2020/12/31 07:54:11;;;;;;;3.80;2.63;;;2.80;99.90;;;;;;4829480;29;20216;-86
2020/12/31 07:56:38;;;;;;;4.57;3.13;;;2.70;99.90;;;;;;4827969;29;20288;-85
2020/12/31 07:59:04;;;;;;;3.80;2.90;;;2.70;99.90;;;;;;4826876;29;20236;-87
2020/12/31 08:01:30;;;;;;;1.77;1.33;;;2.60;99.90;;;;;;4839883;29;20220;-84
2020/12/31 08:04:09;;;;;;;2.07;1.97;;;2.60;99.90;;;;;;4826121;29;20201;-85
2020/12/31 08:06:35;;;;;;;9.73;6.43;;;2.60;99.90;;;;;;4856006;29;20192;-86
2020/12/31 08:09:01;;;;;;;3.23;3.00;;;2.60;99.90;;;;;;4826546;29;20228;-86
2020/12/31 08:11:26;;;;;;;3.33;2.60;;;2.50;99.90;;;;;;4825920;29;20744;-86
2020/12/31 08:14:04;;;;;;;3.93;2.20;;;2.50;99.90;;;;;;4843419;29;20698;-87
2020/12/31 08:16:30;;;;;;;3.43;2.47;;;2.50;99.90;;;;;;4857284;29;20295;-92
2020/12/31 08:18:57;;;;;;;3.23;2.93;;;2.50;99.90;;;;;;4827104;29;20315;-90
2020/12/31 08:21:24;;;;;;;2.37;2.17;;;2.50;99.90;;;;;;4828340;29;20262;-88
2020/12/31 08:24:04;;;;;;;5.27;4.37;;;2.50;99.90;;;;;;4829186;29;20589;-85
2020/12/31 08:26:31;;;;;;;13.17;9.03;;;2.60;99.90;;;;;;4844263;29;20292;-90
2020/12/31 08:28:57;;;;;;;6.63;5.50;;;2.50;99.90;;;;;;4820784;29;20212;-87
2020/12/31 08:31:24;;;;;;;5.30;4.80;;;2.60;99.90;;;;;;4826220;29;20327;-88
2020/12/31 08:34:00;;;;;;;6.10;4.33;;;2.70;99.90;;;;;;4842239;29;21084;-90
2020/12/31 08:36:27;;;;;;;5.07;4.50;;;2.70;99.90;;;;;;4844446;29;20195;-89
2020/12/31 08:38:54;;;;;;;5.97;5.47;;;2.80;99.90;;;;;;4827117;29;20232;-89
2020/12/31 08:41:20;;;;;;;5.37;4.23;;;2.90;99.90;;;;;;4841126;29;20690;-86
2020/12/31 08:43:46;;;;;;;8.13;5.10;;;2.90;99.90;;;;;;4842265;29;20270;-89
2020/12/31 08:46:20;;;;;;;6.23;3.80;;;3.00;99.90;;;;;;4827845;29;20295;-90
2020/12/31 08:48:58;;;;;;;2.60;2.40;;;3.00;99.90;;;;;;4842323;29;20291;-90
2020/12/31 08:51:30;;;;;;;14.37;7.37;;;3.10;99.90;;;;;;4825603;29;20234;-90
2020/12/31 08:54:00;;;;;;;2.90;2.60;;;3.30;99.90;;;;;;4845742;29;20213;-90
2020/12/31 08:56:31;;;;;;;1.50;1.40;;;3.30;99.90;;;;;;4827690;29;20223;-91
2020/12/31 08:59:10;;;;;;;3.77;2.50;;;3.50;99.90;;;;;;4857854;29;20330;-90
2020/12/31 09:01:37;;;;;;;2.40;2.20;;;3.60;99.90;;;;;;4854670;29;20976;-92
2020/12/31 09:04:16;;;;;;;3.33;2.23;;;3.70;99.90;;;;;;4840144;29;20319;-89
2020/12/31 09:06:43;;;;;;;3.50;2.63;;;3.70;99.90;;;;;;4841778;29;20196;-91
2020/12/31 09:09:28;;;;;;;3.63;3.30;;;3.70;99.90;;;;;;4810402;29;20228;-91
2020/12/31 09:12:03;;;;;;;2.50;2.30;;;3.70;99.90;;;;;;4841839;29;20223;-92
2020/12/31 09:14:30;;;;;;;5.87;5.33;;;3.70;99.90;;;;;;4840943;29;20342;-91
2020/12/31 09:16:56;;;;;;;2.90;2.70;;;3.60;99.90;;;;;;4857412;29;20224;-90
2020/12/31 09:19:23;;;;;;;3.20;2.90;;;3.60;99.90;;;;;;4857642;29;20785;-90
2020/12/31 09:21:49;;;;;;;2.17;1.97;;;3.60;99.90;;;;;;4857741;29;20196;-90
2020/12/31 09:24:24;;;;;;;1.90;1.80;;;3.60;99.90;;;;;;4840290;29;20227;-90
2020/12/31 09:26:51;;;;;;;4.27;2.60;;;3.60;99.90;;;;;;4827292;29;20315;-90
2020/12/31 09:29:17;;;;;;;1.03;1.03;;;3.70;99.90;;;;;;4838678;29;20236;-90
2020/12/31 09:31:43;;;;;;;1.37;1.27;;;3.70;99.90;;;;;;4840079;29;20255;-92
2020/12/31 09:34:08;;;;;;;0.33;0.33;;;3.70;99.90;;;;;;4820554;29;20209;-85
2020/12/31 09:36:34;;;;;;;2.73;2.03;;;3.70;99.90;;;;;;4837359;29;20988;-87
2020/12/31 09:39:00;;;;;;;2.10;1.90;;;3.70;99.90;;;;;;4852136;29;20645;-87
2020/12/31 09:41:25;;;;;;;0.40;0.40;;;3.70;99.90;;;;;;4825658;29;20271;-85
2020/12/31 09:43:52;;;;;;;4.10;2.00;;;3.60;99.90;;;;;;4820249;29;20691;-86
2020/12/31 09:46:22;;;;;;;2.77;1.97;;;3.60;99.90;;;;;;4852313;29;20231;-86
2020/12/31 09:48:49;;;;;;;2.80;2.60;;;3.70;99.90;;;;;;4854234;29;20286;-86
2020/12/31 09:51:15;;;;;;;2.47;2.37;;;3.70;99.90;;;;;;4851448;29;20212;-86
2020/12/31 09:53:41;;;;;;;2.40;2.13;;;3.80;99.90;;;;;;4804291;29;20762;-87
2020/12/31 09:56:07;;;;;;;2.73;2.33;;;3.80;99.90;;;;;;4834079;29;20221;-86
2020/12/31 09:58:33;;;;;;;3.47;2.27;;;3.80;99.90;;;;;;4824747;29;20228;-87
2020/12/31 10:01:02;;;;;;;2.70;2.07;;;3.80;99.90;;;;;;4824108;29;20223;-86
2020/12/31 10:03:28;;;;;;;4.10;2.67;;;3.80;99.90;;;;;;4854850;29;20188;-86
2020/12/31 10:05:54;;;;;;;4.57;2.40;;;3.80;99.90;;;;;;4841407;29;20215;-86
2020/12/31 10:08:20;;;;;;;6.23;4.00;;;3.80;99.90;;;;;;4857900;29;21145;-85
2020/12/31 10:10:47;;;;;;;5.23;4.57;;;3.90;99.90;;;;;;4847235;29;20343;-86
2020/12/31 10:13:12;;;;;;;13.47;4.53;;;3.90;99.90;;;;;;4860374;29;20231;-86
2020/12/31 10:15:39;;;;;;;3.97;3.50;;;4.00;99.90;;;;;;4861928;29;20231;-88
2020/12/31 10:18:05;;;;;;;4.00;3.63;;;4.10;99.90;;;;;;4830993;29;20241;-90
2020/12/31 10:20:30;;;;;;;1.27;0.97;;;4.10;99.90;;;;;;4828427;29;20250;-88
2020/12/31 10:22:56;;;;;;;2.40;2.20;;;4.10;99.90;;;;;;4813396;29;20264;-89
2020/12/31 10:25:22;;;;;;;2.53;2.33;;;4.20;99.90;;;;;;4813676;29;20236;-89
2020/12/31 10:27:48;;;;;;;2.63;2.03;;;4.30;99.90;;;;;;4829334;29;20244;-89
2020/12/31 10:30:14;;;;;;;2.27;2.07;;;4.40;99.90;;;;;;4827490;29;21806;-89
2020/12/31 10:32:39;;;;;;;1.20;1.10;;;4.50;99.90;;;;;;4843668;29;20889;-86
2020/12/31 10:35:05;;;;;;;3.17;2.90;;;4.50;99.90;;;;;;4826784;29;20758;-86
2020/12/31 10:37:31;;;;;;;2.70;2.13;;;4.60;99.90;;;;;;4859874;29;20262;-87
2020/12/31 10:39:57;;;;;;;4.17;2.50;;;4.80;99.90;;;;;;4811876;29;20311;-86
2020/12/31 10:42:24;;;;;;;1.23;1.10;;;4.90;99.90;;;;;;4842149;29;20598;-87
2020/12/31 10:44:49;;;;;;;0.50;0.50;;;4.90;99.90;;;;;;4859846;29;20277;-86
2020/12/31 10:47:15;;;;;;;3.10;1.70;;;4.90;99.90;;;;;;4843040;29;20895;-86
2020/12/31 10:49:41;;;;;;;1.63;1.37;;;4.90;99.90;;;;;;4859351;29;20233;-87
2020/12/31 10:52:07;;;;;;;7.87;4.93;;;4.90;99.90;;;;;;4827568;29;20200;-86
2020/12/31 10:54:32;;;;;;;4.57;3.77;;;4.80;99.90;;;;;;4842785;29;20203;-87
2020/12/31 10:56:58;;;;;;;1.80;1.70;;;4.70;99.90;;;;;;4828929;29;20770;-87
2020/12/31 10:59:25;;;;;;;2.07;1.87;;;4.80;99.90;;;;;;4858955;29;20247;-87
2020/12/31 11:01:54;;;;;;;2.20;1.77;;;4.80;99.90;;;;;;4858518;29;20261;-87
2020/12/31 11:04:21;;;;;;;0.30;0.30;;;4.90;99.90;;;;;;4827437;29;20234;-88
2020/12/31 11:06:47;;;;;;;0.30;0.30;;;4.90;99.90;;;;;;4845936;29;20196;-84
2020/12/31 11:09:13;;;;;;;0.47;0.47;;;4.90;99.90;;;;;;4824645;29;20220;-87
2020/12/31 11:11:40;;;;;;;0.60;0.60;;;4.90;99.90;;;;;;4840933;29;20220;-87
2020/12/31 11:14:07;;;;;;;2.53;1.70;;;5.00;99.90;;;;;;4824564;29;20240;-87
2020/12/31 11:16:33;;;;;;;0.43;0.43;;;5.00;99.90;;;;;;4839389;29;20224;-87
2020/12/31 11:18:59;;;;;;;0.53;0.53;;;5.00;99.90;;;;;;4824963;29;20219;-88
2020/12/31 11:21:25;;;;;;;1.00;0.63;;;5.00;99.90;;;;;;4813793;29;20212;-88
2020/12/31 11:23:52;;;;;;;1.07;0.60;;;5.10;99.90;;;;;;4842376;29;20216;-89
2020/12/31 11:26:22;;;;;;;0.63;0.63;;;5.20;99.90;;;;;;4856951;29;20262;-86
2020/12/31 11:28:49;;;;;;;0.70;0.70;;;5.30;99.90;;;;;;4843853;29;20306;-88
2020/12/31 11:31:21;;;;;;;0.87;0.87;;;5.40;99.90;;;;;;4841636;29;20224;-87
2020/12/31 11:33:47;;;;;;;1.10;0.63;;;5.40;99.90;;;;;;4860059;29;20325;-87
2020/12/31 11:36:13;;;;;;;1.80;1.30;;;5.60;99.90;;;;;;4825330;29;20691;-88
2020/12/31 11:38:40;;;;;;;0.80;0.77;;;5.60;99.90;;;;;;4840608;29;20236;-88
2020/12/31 11:41:09;;;;;;;0.60;0.60;;;5.80;99.90;;;;;;4839939;29;20228;-87
2020/12/31 11:43:35;;;;;;;0.63;0.63;;;5.80;99.90;;;;;;4858963;29;20224;-88
2020/12/31 11:46:03;;;;;;;2.50;1.43;;;5.90;99.90;;;;;;4840646;29;20239;-87
2020/12/31 11:48:29;;;;;;;1.33;1.03;;;5.80;99.90;;;;;;4843358;29;20216;-86
2020/12/31 11:50:55;;;;;;;1.13;1.13;;;5.70;99.90;;;;;;4827897;29;20698;-89
2020/12/31 11:53:21;;;;;;;0.77;0.77;;;5.80;99.90;;;;;;4858785;29;20225;-90
2020/12/31 11:55:51;;;;;;;0.70;0.50;;;5.80;99.90;;;;;;4840958;29;20213;-90
2020/12/31 11:58:17;;;;;;;0.50;0.50;;;5.80;99.90;;;;;;4824803;29;20252;-86
2020/12/31 12:00:43;;;;;;;1.20;0.90;;;5.90;99.90;;;;;;4842297;29;20680;-89
2020/12/31 12:03:09;;;;;;;2.53;1.77;;;5.80;99.90;;;;;;4842491;29;20272;-87
2020/12/31 12:05:35;;;;;;;1.17;1.00;;;5.90;99.90;;;;;;4811470;29;20700;-89
2020/12/31 12:08:01;;;;;;;2.23;1.07;;;5.80;99.90;;;;;;4825542;29;21136;-89
2020/12/31 12:10:27;;;;;;;1.00;1.00;;;5.80;99.90;;;;;;4823959;29;20233;-89
2020/12/31 12:12:53;;;;;;;1.53;1.43;;;5.90;99.90;;;;;;4826019;29;20189;-90
2020/12/31 12:15:19;;;;;;;1.47;1.43;;;6.00;99.90;;;;;;4827993;29;20199;-90
2020/12/31 12:17:46;;;;;;;0.97;0.90;;;5.80;99.90;;;;;;4826793;29;20231;-88
2020/12/31 12:20:12;;;;;;;10.10;1.77;;;5.80;99.90;;;;;;4839859;29;20243;-88
2020/12/31 12:22:38;;;;;;;2.27;2.07;;;5.80;99.90;;;;;;4859300;29;20228;-90
2020/12/31 12:25:05;;;;;;;0.73;0.73;;;5.80;99.90;;;;;;4827290;29;20824;-89
2020/12/31 12:27:31;;;;;;;1.47;1.10;;;5.90;99.90;;;;;;4845042;29;20270;-91
2020/12/31 12:29:57;;;;;;;1.97;1.87;;;5.80;99.90;;;;;;4841089;29;21147;-89
2020/12/31 12:32:23;;;;;;;3.27;2.53;;;5.70;99.90;;;;;;4845490;29;20220;-90
2020/12/31 12:34:49;;;;;;;4.43;2.70;;;5.70;99.90;;;;;;4842018;29;20232;-92
2020/12/31 12:37:14;;;;;;;7.40;3.90;;;5.70;99.90;;;;;;4825199;29;20224;-89
2020/12/31 12:39:40;;;;;;;3.10;1.13;;;5.70;99.90;;;;;;4843201;29;20246;-89
2020/12/31 12:42:06;;;;;;;1.67;1.57;;;5.60;99.90;;;;;;4810189;29;21109;-90
2020/12/31 12:44:32;;;;;;;7.43;5.03;;;5.50;99.90;;;;;;4838440;29;20353;-89
2020/12/31 12:46:58;;;;;;;25.93;11.10;;;5.40;99.90;;;;;;4842511;29;20729;-90
2020/12/31 12:49:26;;;;;;;2.60;1.97;;;5.40;99.90;;;;;;4826846;29;20230;-89
2020/12/31 12:51:52;;;;;;;3.23;2.20;;;5.50;99.90;;;;;;4819722;29;20197;-91
2020/12/31 12:54:17;;;;;;;9.67;4.57;;;5.80;99.90;;;;;;4842612;29;20204;-91
2020/12/31 12:56:43;;;;;;;14.83;3.80;;;6.20;99.90;;;;;;4808994;29;20225;-87
2020/12/31 12:59:09;;;;;;;10.90;4.13;;;6.70;99.90;;;;;;4826026;29;20236;-89
2020/12/31 13:01:37;;;;;;;16.00;7.83;;;6.70;99.90;;;;;;4828057;29;20231;-89
2020/12/31 13:04:03;;;;;;;5.20;3.63;;;6.70;99.90;;;;;;4825529;29;20196;-88